createdAt,value
2017-09-25T00:00:20.198Z,101564.60
2017-09-25T00:02:48.536Z,101565.08
2017-09-25T00:05:16.837Z,101567.07
2017-09-25T00:07:45.161Z,101566.13
2017-09-25T00:10:14.232Z,101570.83
2017-09-25T00:12:42.556Z,101563.30
2017-09-25T00:15:10.862Z,101566.24
2017-09-25T00:17:39.204Z,101561.19
2017-09-25T00:20:08.277Z,101558.80
2017-09-25T00:22:37.376Z,101555.42
2017-09-25T00:25:06.509Z,101553.58
2017-09-25T00:27:34.817Z,101553.16
2017-09-25T00:30:03.142Z,101553.16
2017-09-25T00:32:32.231Z,101553.80
2017-09-25T00:35:00.585Z,101553.29
2017-09-25T00:37:28.888Z,101550.70
2017-09-25T00:39:57.957Z,101547.16
2017-09-25T00:42:26.276Z,101549.00
2017-09-25T00:44:54.585Z,101544.36
2017-09-25T00:47:22.913Z,101546.95
2017-09-25T00:49:51.999Z,101540.97
2017-09-25T00:55:51.536Z,101541.45
2017-09-25T00:58:20.622Z,101535.19
2017-09-25T01:01:07.578Z,101529.44
2017-09-25T01:03:53.705Z,101523.02
2017-09-25T01:06:27.380Z,101525.47
2017-09-25T01:08:55.704Z,101515.45
2017-09-25T01:11:24.017Z,101522.45
2017-09-25T01:13:52.325Z,101515.48
2017-09-25T01:16:20.650Z,101517.81
2017-09-25T01:18:49.735Z,101518.93
2017-09-25T01:21:18.046Z,101513.22
2017-09-25T01:23:46.369Z,101513.42
2017-09-25T01:26:14.682Z,101519.34
2017-09-25T01:28:43.773Z,101518.05
2017-09-25T01:31:12.856Z,101515.00
2017-09-25T01:33:41.175Z,101520.17
2017-09-25T01:36:09.477Z,101516.17
2017-09-25T01:38:37.800Z,101520.59
2017-09-25T01:41:06.893Z,101513.34
2017-09-25T01:43:35.979Z,101517.70
2017-09-25T01:46:04.297Z,101519.58
2017-09-25T01:48:32.620Z,101518.42
2017-09-25T01:51:00.936Z,101510.16
2017-09-25T01:53:29.334Z,101517.09
2017-09-25T01:55:57.653Z,101514.30
2017-09-25T01:58:25.977Z,101515.84
2017-09-25T02:00:54.293Z,101510.50
2017-09-25T02:03:22.625Z,101511.87
2017-09-25T02:05:50.928Z,101513.64
2017-09-25T02:08:19.237Z,101499.81
2017-09-25T02:10:47.553Z,101498.31
2017-09-25T02:13:16.628Z,101493.25
2017-09-25T02:15:44.948Z,101495.42
2017-09-25T02:18:13.260Z,101490.70
2017-09-25T02:20:41.580Z,101493.40
2017-09-25T02:23:10.660Z,101493.38
2017-09-25T02:25:39.740Z,101489.42
2017-09-25T02:28:08.093Z,101481.14
2017-09-25T02:30:36.409Z,101480.73
2017-09-25T02:33:05.500Z,101480.70
2017-09-25T02:35:33.832Z,101471.62
2017-09-25T02:38:02.143Z,101472.26
2017-09-25T02:40:30.497Z,101465.00
2017-09-25T02:42:58.807Z,101467.92
2017-09-25T02:45:27.134Z,101458.81
2017-09-25T02:47:55.455Z,101467.38
2017-09-25T02:50:23.771Z,101463.22
2017-09-25T02:52:52.122Z,101463.66
2017-09-25T02:55:21.204Z,101452.41
2017-09-25T02:57:49.518Z,101458.03
2017-09-25T03:00:17.842Z,101451.64
2017-09-25T03:02:46.166Z,101453.37
2017-09-25T03:05:15.283Z,101458.09
2017-09-25T03:07:43.608Z,101455.35
2017-09-25T03:10:11.922Z,101456.23
2017-09-25T03:12:41.023Z,101459.17
2017-09-25T03:15:09.333Z,101449.00
2017-09-25T03:17:37.677Z,101448.88
2017-09-25T03:20:06.004Z,101452.38
2017-09-25T03:22:34.321Z,101453.44
2017-09-25T03:25:03.414Z,101452.69
2017-09-25T03:27:32.542Z,101454.75
2017-09-25T03:30:00.921Z,101450.59
2017-09-25T03:32:29.239Z,101455.03
2017-09-25T03:34:57.562Z,101455.95
2017-09-25T03:37:25.888Z,101453.13
2017-09-25T03:39:54.197Z,101459.83
2017-09-25T03:42:23.305Z,101456.41
2017-09-25T03:44:51.621Z,101456.02
2017-09-25T03:47:19.929Z,101463.41
2017-09-25T03:49:48.258Z,101457.06
2017-09-25T03:52:16.593Z,101460.11
2017-09-25T03:54:44.957Z,101466.30
2017-09-25T03:57:13.338Z,101458.22
2017-09-25T03:59:41.653Z,101467.86
2017-09-25T04:02:09.980Z,101462.55
2017-09-25T04:04:38.295Z,101458.78
2017-09-25T04:07:07.405Z,101452.11
2017-09-25T04:09:35.723Z,101450.23
2017-09-25T04:12:04.036Z,101443.53
2017-09-25T04:14:33.130Z,101441.47
2017-09-25T04:17:01.442Z,101441.20
2017-09-25T04:19:29.798Z,101444.67
2017-09-25T04:21:58.881Z,101441.94
2017-09-25T04:24:27.986Z,101442.34
2017-09-25T04:26:57.076Z,101437.16
2017-09-25T04:29:26.166Z,101434.92
2017-09-25T04:31:54.515Z,101439.03
2017-09-25T04:34:22.829Z,101440.47
2017-09-25T04:36:51.902Z,101442.84
2017-09-25T04:39:20.222Z,101442.23
2017-09-25T04:41:48.548Z,101448.86
2017-09-25T04:44:16.913Z,101439.45
2017-09-25T04:46:45.223Z,101443.62
2017-09-25T04:49:13.543Z,101452.64
2017-09-25T04:51:41.858Z,101455.16
2017-09-25T04:54:10.170Z,101462.76
2017-09-25T04:56:39.278Z,101463.02
2017-09-25T04:59:07.593Z,101454.26
2017-09-25T05:01:35.913Z,101463.59
2017-09-25T05:04:05.049Z,101456.25
2017-09-25T05:06:33.358Z,101470.33
2017-09-25T05:09:01.706Z,101475.75
2017-09-25T05:11:30.022Z,101470.52
2017-09-25T05:13:58.330Z,101462.32
2017-09-25T05:16:27.422Z,101453.92
2017-09-25T05:18:56.549Z,101453.63
2017-09-25T05:21:24.886Z,101454.27
2017-09-25T05:23:53.216Z,101459.94
2017-09-25T05:26:21.554Z,101449.66
2017-09-25T05:28:50.665Z,101453.20
2017-09-25T05:31:18.986Z,101460.06
2017-09-25T05:33:47.326Z,101455.94
2017-09-25T05:36:15.637Z,101464.61
2017-09-25T05:38:43.942Z,101464.16
2017-09-25T05:41:12.292Z,101464.53
2017-09-25T05:43:40.638Z,101461.63
2017-09-25T05:46:08.973Z,101463.94
2017-09-25T05:48:37.281Z,101459.22
2017-09-25T05:51:05.597Z,101455.39
2017-09-25T05:53:34.682Z,101466.41
2017-09-25T05:56:02.989Z,101469.61
2017-09-25T05:58:31.349Z,101463.78
2017-09-25T06:00:59.650Z,101469.38
2017-09-25T06:03:27.954Z,101473.42
2017-09-25T06:05:57.033Z,101470.41
2017-09-25T06:08:25.342Z,101470.38
2017-09-25T06:10:53.690Z,101467.56
2017-09-25T06:13:22.004Z,101473.71
2017-09-25T06:15:50.318Z,101471.98
2017-09-25T06:18:18.633Z,101474.08
2017-09-25T06:20:46.958Z,101474.46
2017-09-25T06:23:15.309Z,101471.70
2017-09-25T06:25:43.630Z,101468.27
2017-09-25T06:28:11.943Z,101460.69
2017-09-25T06:30:40.286Z,101465.55
2017-09-25T06:33:08.599Z,101461.63
2017-09-25T06:35:36.941Z,101463.16
2017-09-25T06:38:05.252Z,101463.69
2017-09-25T06:40:33.582Z,101466.45
2017-09-25T06:43:01.907Z,101458.80
2017-09-25T06:45:30.990Z,101463.63
2017-09-25T06:47:59.346Z,101469.45
2017-09-25T06:50:27.668Z,101470.84
2017-09-25T06:52:55.985Z,101472.68
2017-09-25T06:55:24.306Z,101472.37
2017-09-25T06:57:53.397Z,101476.70
2017-09-25T07:00:22.517Z,101476.87
2017-09-25T07:02:50.829Z,101477.92
2017-09-25T07:05:19.158Z,101475.74
2017-09-25T07:07:48.253Z,101469.44
2017-09-25T07:10:17.334Z,101469.36
2017-09-25T07:12:45.754Z,101471.03
2017-09-25T07:15:14.082Z,101470.89
2017-09-25T07:17:42.395Z,101472.45
2017-09-25T07:20:10.745Z,101473.91
2017-09-25T07:22:39.055Z,101478.88
2017-09-25T07:25:08.141Z,101473.80
2017-09-25T07:27:37.228Z,101472.89
2017-09-25T07:30:06.342Z,101471.48
2017-09-25T07:32:34.662Z,101471.22
2017-09-25T07:35:02.970Z,101473.66
2017-09-25T07:37:32.062Z,101467.28
2017-09-25T07:40:00.394Z,101473.90
2017-09-25T07:42:28.714Z,101472.25
2017-09-25T07:44:57.024Z,101470.52
2017-09-25T07:47:25.366Z,101474.59
2017-09-25T07:49:53.686Z,101471.88
2017-09-25T07:52:22.006Z,101473.99
2017-09-25T07:54:50.322Z,101472.62
2017-09-25T07:57:19.402Z,101471.16
2017-09-25T07:59:47.727Z,101483.36
2017-09-25T08:02:16.033Z,101482.98
2017-09-25T08:04:44.370Z,101484.70
2017-09-25T08:07:12.678Z,101482.70
2017-09-25T08:09:40.985Z,101487.36
2017-09-25T08:12:09.302Z,101485.34
2017-09-25T08:14:37.608Z,101483.09
2017-09-25T08:17:05.922Z,101482.57
2017-09-25T08:19:34.997Z,101487.39
2017-09-25T08:22:03.347Z,101486.61
2017-09-25T08:24:31.653Z,101484.04
2017-09-25T08:26:59.960Z,101485.63
2017-09-25T08:29:29.041Z,101484.60
2017-09-25T08:31:58.125Z,101482.38
2017-09-25T08:34:26.456Z,101485.86
2017-09-25T08:36:54.814Z,101486.80
2017-09-25T08:39:23.161Z,101489.53
2017-09-25T08:41:51.474Z,101487.34
2017-09-25T08:44:19.779Z,101484.48
2017-09-25T08:46:48.098Z,101490.44
2017-09-25T08:49:16.414Z,101488.84
2017-09-25T08:51:44.733Z,101481.29
2017-09-25T08:54:13.042Z,101485.20
2017-09-25T08:56:42.168Z,101475.52
2017-09-25T08:59:10.477Z,101477.05
2017-09-25T09:01:38.798Z,101475.00
2017-09-25T09:04:07.885Z,101468.34
2017-09-25T09:06:36.958Z,101474.27
2017-09-25T09:09:05.295Z,101468.62
2017-09-25T09:11:33.612Z,101469.20
2017-09-25T09:14:01.950Z,101470.80
2017-09-25T09:16:30.271Z,101473.70
2017-09-25T09:18:58.600Z,101468.95
2017-09-25T09:21:26.944Z,101469.11
2017-09-25T09:23:56.023Z,101461.56
2017-09-25T09:26:24.377Z,101460.75
2017-09-25T09:28:52.717Z,101459.89
2017-09-25T09:31:21.028Z,101454.63
2017-09-25T09:33:49.359Z,101451.19
2017-09-25T09:36:18.442Z,101447.60
2017-09-25T09:38:46.787Z,101456.69
2017-09-25T09:41:15.116Z,101453.78
2017-09-25T09:43:44.193Z,101456.72
2017-09-25T09:46:12.518Z,101447.52
2017-09-25T09:48:40.822Z,101447.17
2017-09-25T09:51:09.162Z,101439.97
2017-09-25T09:53:37.479Z,101443.62
2017-09-25T09:56:05.781Z,101447.53
2017-09-25T09:58:34.094Z,101441.59
2017-09-25T10:01:02.402Z,101446.97
2017-09-25T10:03:30.740Z,101450.81
2017-09-25T10:05:59.051Z,101455.73
2017-09-25T10:08:27.358Z,101447.05
2017-09-25T10:10:55.686Z,101452.44
2017-09-25T10:13:23.990Z,101452.06
2017-09-25T10:15:52.310Z,101454.13
2017-09-25T10:18:21.402Z,101452.98
2017-09-25T10:20:50.511Z,101451.36
2017-09-25T10:23:19.582Z,101454.14
2017-09-25T10:25:47.894Z,101448.42
2017-09-25T10:28:16.218Z,101452.59
2017-09-25T10:30:44.538Z,101446.64
2017-09-25T10:33:12.866Z,101454.03
2017-09-25T10:35:41.197Z,101450.91
2017-09-25T10:38:09.542Z,101448.56
2017-09-25T10:40:37.858Z,101449.04
2017-09-25T10:43:06.167Z,101448.12
2017-09-25T10:45:34.519Z,101443.97
2017-09-25T10:48:02.830Z,101445.40
2017-09-25T10:50:31.157Z,101451.33
2017-09-25T10:52:59.774Z,101445.05
2017-09-25T10:55:28.086Z,101444.18
2017-09-25T10:57:56.411Z,101434.90
2017-09-25T11:00:24.722Z,101445.99
2017-09-25T11:02:53.040Z,101438.32
2017-09-25T11:05:22.114Z,101437.86
2017-09-25T11:07:50.459Z,101436.33
2017-09-25T11:10:18.758Z,101427.60
2017-09-25T11:12:47.077Z,101438.92
2017-09-25T11:15:16.165Z,101436.45
2017-09-25T11:17:45.242Z,101435.10
2017-09-25T11:20:13.562Z,101435.42
2017-09-25T11:22:41.874Z,101433.59
2017-09-25T11:25:10.219Z,101430.91
2017-09-25T11:27:38.538Z,101423.78
2017-09-25T11:30:06.855Z,101426.28
2017-09-25T11:32:35.936Z,101422.66
2017-09-25T11:35:05.009Z,101427.36
2017-09-25T11:37:33.329Z,101437.36
2017-09-25T11:40:01.637Z,101432.01
2017-09-25T11:42:29.977Z,101431.53
2017-09-25T11:44:59.057Z,101426.54
2017-09-25T11:47:28.129Z,101423.22
2017-09-25T11:49:56.461Z,101433.57
2017-09-25T11:52:24.773Z,101431.80
2017-09-25T11:54:53.101Z,101428.98
2017-09-25T11:57:22.174Z,101434.97
2017-09-25T11:59:50.518Z,101436.27
2017-09-25T12:02:18.829Z,101440.33
2017-09-25T12:04:47.141Z,101441.45
2017-09-25T12:07:15.463Z,101438.06
2017-09-25T12:09:43.777Z,101439.38
2017-09-25T12:12:12.870Z,101440.47
2017-09-25T12:14:41.951Z,101444.50
2017-09-25T12:17:10.278Z,101437.59
2017-09-25T12:19:38.591Z,101440.79
2017-09-25T12:22:06.898Z,101440.49
2017-09-25T12:24:35.990Z,101433.95
2017-09-25T12:27:05.075Z,101435.34
2017-09-25T12:29:33.398Z,101434.27
2017-09-25T12:32:01.710Z,101438.30
2017-09-25T12:34:30.062Z,101440.25
2017-09-25T12:36:58.372Z,101433.94
2017-09-25T12:39:26.677Z,101406.02
2017-09-25T12:41:55.768Z,101435.40
2017-09-25T12:44:24.849Z,101429.83
2017-09-25T12:46:53.191Z,101440.34
2017-09-25T12:49:21.514Z,101438.73
2017-09-25T12:51:50.597Z,101435.38
2017-09-25T12:54:18.925Z,101435.59
2017-09-25T12:56:47.234Z,101428.82
2017-09-25T12:59:15.589Z,101421.20
2017-09-25T13:01:43.903Z,101419.50
2017-09-25T13:04:12.230Z,101411.70
2017-09-25T13:06:40.558Z,101417.63
2017-09-25T13:09:08.890Z,101419.82
2017-09-25T13:11:37.235Z,101415.52
2017-09-25T13:14:06.311Z,101419.44
2017-09-25T13:16:34.646Z,101407.78
2017-09-25T13:19:02.953Z,101411.94
2017-09-25T13:21:31.273Z,101409.58
2017-09-25T13:23:59.597Z,101402.38
2017-09-25T13:26:27.908Z,101401.39
2017-09-25T13:28:57.003Z,101408.25
2017-09-25T13:31:26.081Z,101403.64
2017-09-25T13:33:54.422Z,101396.52
2017-09-25T13:36:22.729Z,101395.56
2017-09-25T13:38:51.038Z,101398.50
2017-09-25T13:41:20.126Z,101400.08
2017-09-25T13:43:49.202Z,101396.31
2017-09-25T13:46:17.518Z,101394.89
2017-09-25T13:48:46.596Z,101392.09
2017-09-25T13:51:15.724Z,101399.53
2017-09-25T13:53:44.110Z,101406.25
2017-09-25T13:56:12.422Z,101401.81
2017-09-25T14:03:47.862Z,101394.61
2017-09-25T14:06:16.227Z,101398.81
2017-09-25T14:08:44.607Z,101392.98
2017-09-25T14:11:13.010Z,101393.96
2017-09-25T14:13:41.414Z,101390.59
2017-09-25T14:16:09.786Z,101392.09
2017-09-25T14:18:38.149Z,101398.79
2017-09-25T14:21:06.533Z,101401.73
2017-09-25T14:23:34.902Z,101402.27
2017-09-25T14:26:03.278Z,101400.93
2017-09-25T14:28:31.649Z,101403.94
2017-09-25T14:31:00.045Z,101405.36
2017-09-25T14:33:28.414Z,101402.42
2017-09-25T14:35:56.791Z,101401.46
2017-09-25T14:38:25.182Z,101405.34
2017-09-25T14:40:53.551Z,101408.77
2017-09-25T14:43:21.944Z,101409.41
2017-09-25T14:45:50.308Z,101408.31
2017-09-25T14:48:18.732Z,101402.31
2017-09-25T14:50:47.096Z,101408.18
2017-09-25T14:53:15.458Z,101407.13
2017-09-25T14:55:43.835Z,101406.64
2017-09-25T14:58:12.234Z,101402.98
2017-09-25T15:00:40.605Z,101402.69
2017-09-25T15:03:08.966Z,101409.94
2017-09-25T15:05:37.361Z,101403.21
2017-09-25T15:08:05.723Z,101411.92
2017-09-25T15:10:34.096Z,101415.62
2017-09-25T15:13:02.469Z,101414.72
2017-09-25T15:15:30.829Z,101412.51
2017-09-25T15:17:59.201Z,101414.67
2017-09-25T15:20:28.334Z,101417.45
2017-09-25T15:22:56.725Z,101419.54
2017-09-25T15:25:25.861Z,101423.22
2017-09-25T15:27:54.989Z,101424.06
2017-09-25T15:30:23.417Z,101432.95
2017-09-25T15:32:51.826Z,101427.36
2017-09-25T15:35:21.018Z,101422.31
2017-09-25T15:37:50.157Z,101425.34
2017-09-25T15:40:18.559Z,101430.24
2017-09-25T15:42:46.919Z,101437.07
2017-09-25T15:45:15.284Z,101432.23
2017-09-25T15:47:43.664Z,101433.74
2017-09-25T15:50:12.029Z,101442.77
2017-09-25T15:52:40.397Z,101440.50
2017-09-25T15:55:09.523Z,101442.52
2017-09-25T15:57:37.927Z,101448.59
2017-09-25T16:00:06.318Z,101448.04
2017-09-25T16:02:34.678Z,101447.09
2017-09-25T16:05:03.082Z,101447.88
2017-09-25T16:07:31.449Z,101452.92
2017-09-25T16:09:59.827Z,101461.32
2017-09-25T16:12:28.196Z,101453.45
2017-09-25T16:14:56.593Z,101454.59
2017-09-25T16:17:24.956Z,101465.30
2017-09-25T16:19:53.321Z,101463.42
2017-09-25T16:22:21.692Z,101458.14
2017-09-25T16:24:50.057Z,101456.22
2017-09-25T16:27:18.434Z,101463.99
2017-09-25T16:29:46.801Z,101468.83
2017-09-25T16:32:15.203Z,101461.73
2017-09-25T16:34:43.574Z,101463.84
2017-09-25T16:37:11.938Z,101466.84
2017-09-25T16:39:40.317Z,101463.23
2017-09-25T16:42:08.685Z,101469.84
2017-09-25T16:44:37.825Z,101473.36
2017-09-25T16:47:06.185Z,101472.52
2017-09-25T16:49:34.586Z,101480.52
2017-09-25T16:52:02.952Z,101481.25
2017-09-25T16:54:31.321Z,101486.55
2017-09-25T16:56:59.690Z,101486.91
2017-09-25T16:59:28.062Z,101484.98
2017-09-25T17:01:56.455Z,101493.77
2017-09-25T17:04:24.821Z,101494.19
2017-09-25T17:06:53.205Z,101499.04
2017-09-25T17:09:22.334Z,101497.22
2017-09-25T17:11:50.702Z,101497.40
2017-09-25T17:14:19.086Z,101495.02
2017-09-25T17:16:47.442Z,101496.70
2017-09-25T17:19:15.825Z,101504.19
2017-09-25T17:21:44.190Z,101499.13
2017-09-25T17:24:12.586Z,101498.69
2017-09-25T17:26:41.790Z,101501.53
2017-09-25T17:29:10.168Z,101502.72
2017-09-25T17:31:38.551Z,101507.85
2017-09-25T17:34:06.910Z,101505.70
2017-09-25T17:36:35.281Z,101505.68
2017-09-25T17:39:03.649Z,101505.32
2017-09-25T17:41:32.818Z,101499.44
2017-09-25T17:44:01.185Z,101506.65
2017-09-25T17:46:29.550Z,101502.47
2017-09-25T17:48:57.926Z,101512.34
2017-09-25T17:51:27.062Z,101510.72
2017-09-25T17:53:55.458Z,101508.97
2017-09-25T17:56:24.595Z,101515.03
2017-09-25T17:58:52.994Z,101513.48
2017-09-25T18:01:21.357Z,101518.95
2017-09-25T18:03:49.736Z,101517.84
2017-09-25T18:06:18.119Z,101515.16
2017-09-25T18:08:46.486Z,101519.14
2017-09-25T18:11:14.863Z,101515.75
2017-09-25T18:13:43.223Z,101520.16
2017-09-25T18:16:11.621Z,101521.41
2017-09-25T18:18:40.002Z,101524.08
2017-09-25T18:21:08.361Z,101525.63
2017-09-25T18:23:36.729Z,101526.17
2017-09-25T18:26:05.097Z,101532.89
2017-09-25T18:28:33.493Z,101533.52
2017-09-25T18:31:01.861Z,101530.70
2017-09-25T18:33:30.286Z,101531.72
2017-09-25T18:35:58.651Z,101534.61
2017-09-25T18:38:27.017Z,101535.57
2017-09-25T18:40:55.389Z,101539.33
2017-09-25T18:43:23.749Z,101542.32
2017-09-25T18:45:52.921Z,101540.62
2017-09-25T18:48:21.286Z,101541.17
2017-09-25T18:50:49.689Z,101538.37
2017-09-25T18:53:18.824Z,101541.87
2017-09-25T18:55:47.197Z,101540.16
2017-09-25T18:58:15.583Z,101534.60
2017-09-25T19:00:43.954Z,101536.60
2017-09-25T19:03:12.339Z,101538.09
2017-09-25T19:05:40.696Z,101536.13
2017-09-25T19:08:09.860Z,101540.70
2017-09-25T19:10:38.227Z,101542.55
2017-09-25T19:13:07.397Z,101546.11
2017-09-25T19:15:35.801Z,101547.12
2017-09-25T19:18:04.166Z,101546.94
2017-09-25T19:20:32.563Z,101545.75
2017-09-25T19:23:00.933Z,101544.39
2017-09-25T19:25:29.326Z,101545.28
2017-09-25T19:27:57.704Z,101547.47
2017-09-25T19:30:26.569Z,101544.10
2017-09-25T19:32:54.955Z,101549.73
2017-09-25T19:35:23.331Z,101545.46
2017-09-25T19:37:51.700Z,101543.07
2017-09-25T19:40:20.082Z,101553.83
2017-09-25T19:42:48.483Z,101548.48
2017-09-25T19:45:16.840Z,101539.75
2017-09-25T19:47:47.557Z,101543.85
2017-09-25T19:50:22.253Z,101537.75
2017-09-25T19:52:51.420Z,101542.68
2017-09-25T19:55:20.758Z,101542.62
2017-09-25T19:57:52.090Z,101540.02
2017-09-25T20:00:20.485Z,101538.30
2017-09-25T20:02:48.892Z,101541.38
2017-09-25T20:05:17.289Z,101532.95
2017-09-25T20:07:45.683Z,101535.02
2017-09-25T20:10:14.054Z,101541.51
2017-09-25T20:12:42.437Z,101539.09
2017-09-25T20:15:12.077Z,101540.17
2017-09-25T20:17:56.874Z,101535.84
2017-09-25T20:20:25.247Z,101543.41
2017-09-25T20:22:53.639Z,101540.80
2017-09-25T20:25:22.014Z,101535.24
2017-09-25T20:27:50.391Z,101539.69
2017-09-25T20:30:18.772Z,101536.95
2017-09-25T20:32:47.200Z,101537.44
2017-09-25T20:35:15.583Z,101545.56
2017-09-25T20:37:43.958Z,101537.02
2017-09-25T20:40:12.335Z,101544.14
2017-09-25T20:42:44.565Z,101544.55
2017-09-25T20:45:12.952Z,101538.93
2017-09-25T20:47:41.325Z,101540.93
2017-09-25T20:50:09.695Z,101539.15
2017-09-25T20:52:38.063Z,101537.97
2017-09-25T20:55:06.467Z,101533.17
2017-09-25T20:57:34.843Z,101524.97
2017-09-25T21:00:03.222Z,101527.75
2017-09-25T21:02:31.604Z,101526.95
2017-09-25T21:04:59.986Z,101525.14
2017-09-25T21:07:28.370Z,101534.51
2017-09-25T21:09:56.739Z,101534.25
2017-09-25T21:12:25.130Z,101534.02
2017-09-25T21:14:53.494Z,101534.84
2017-09-25T21:17:21.857Z,101533.89
2017-09-25T21:19:50.240Z,101536.39
2017-09-25T21:22:18.605Z,101533.73
2017-09-25T21:24:46.984Z,101539.00
2017-09-25T21:27:15.350Z,101540.27
2017-09-25T21:29:44.499Z,101542.09
2017-09-25T21:32:12.863Z,101548.80
2017-09-25T21:34:41.253Z,101546.20
2017-09-25T21:37:09.627Z,101541.97
2017-09-25T21:39:37.994Z,101546.97
2017-09-25T21:42:06.375Z,101541.45
2017-09-25T21:44:34.741Z,101539.31
2017-09-25T21:47:03.118Z,101543.45
2017-09-25T21:49:31.489Z,101534.33
2017-09-25T21:51:59.897Z,101534.63
2017-09-25T21:54:28.273Z,101535.57
2017-09-25T21:56:56.634Z,101536.22
2017-09-25T21:59:25.029Z,101534.20
2017-09-25T22:01:53.403Z,101539.80
2017-09-25T22:04:21.777Z,101543.71
2017-09-25T22:06:50.142Z,101536.33
2017-09-25T22:09:18.547Z,101539.95
2017-09-25T22:11:46.922Z,101537.00
2017-09-25T22:14:15.289Z,101531.87
2017-09-25T22:16:43.662Z,101533.17
2017-09-25T22:19:12.045Z,101528.45
2017-09-25T22:21:40.414Z,101525.39
2017-09-25T22:24:08.779Z,101533.44
2017-09-25T22:26:37.942Z,101530.11
2017-09-25T22:29:06.309Z,101533.17
2017-09-25T22:31:34.677Z,101532.59
2017-09-25T22:34:03.060Z,101537.17
2017-09-25T22:36:31.425Z,101535.25
2017-09-25T22:38:59.795Z,101536.45
2017-09-25T22:41:28.157Z,101531.55
2017-09-25T22:44:06.461Z,101535.23
2017-09-25T22:46:35.595Z,101537.58
2017-09-25T22:49:03.969Z,101538.89
2017-09-25T22:51:32.332Z,101536.70
2017-09-25T22:54:00.698Z,101533.85
2017-09-25T22:56:29.925Z,101535.29
2017-09-25T22:58:58.289Z,101531.73
2017-09-25T23:01:26.690Z,101536.30
2017-09-25T23:03:58.723Z,101533.52
2017-09-25T23:06:27.132Z,101534.75
2017-09-25T23:08:55.493Z,101533.92
2017-09-25T23:11:23.886Z,101532.98
2017-09-25T23:13:52.257Z,101529.77
2017-09-25T23:16:20.621Z,101534.22
2017-09-25T23:18:49.005Z,101530.66
2017-09-25T23:21:17.371Z,101532.31
2017-09-25T23:23:45.778Z,101528.82
2017-09-25T23:26:14.151Z,101534.64
2017-09-25T23:28:42.517Z,101531.20
2017-09-25T23:31:10.885Z,101527.80
2017-09-25T23:33:39.285Z,101534.41
2017-09-25T23:36:07.666Z,101539.50
2017-09-25T23:38:36.035Z,101538.67
2017-09-25T23:41:04.531Z,101534.09
2017-09-25T23:43:32.897Z,101541.12
2017-09-25T23:46:01.256Z,101546.72
2017-09-25T23:48:30.393Z,101542.78
2017-09-25T23:50:58.753Z,101538.77
2017-09-25T23:53:27.123Z,101539.16
2017-09-25T23:55:55.481Z,101538.87
2017-09-25T23:58:24.641Z,101538.98
